Time;durP1;ratioP1;P1;durP2;ratioP2;P2;SDS_P1;SDS_P2;PMS_P1;PMS_P2;Temp;Humidity;BMP_temperature;BMP_pressure;BME280_temperature;BME280_humidity;BME280_pressure;Samples;Min_cycle;Max_cycle;Signal;HPM_P1;HPM_P2
2022/08/09 00:01:42;;;;;;;9.93;6.45;;;;;;;17.00;78.20;102606.06;5038483;28;20035;-72
2022/08/09 00:04:07;;;;;;;7.57;5.45;;;;;;;17.07;78.25;102626.09;5039788;28;20112;-72
2022/08/09 00:06:32;;;;;;;7.30;5.60;;;;;;;16.95;78.67;102620.22;5029665;28;20529;-72
2022/08/09 00:08:58;;;;;;;6.10;5.50;;;;;;;16.95;78.65;102617.59;5032038;28;20032;-72
2022/08/09 00:11:23;;;;;;;7.03;5.43;;;;;;;16.91;78.64;102624.69;5031848;28;20029;-72
2022/08/09 00:13:49;;;;;;;6.90;5.60;;;;;;;16.94;78.61;102618.47;5033066;28;20580;-72
2022/08/09 00:16:15;;;;;;;9.05;5.60;;;;;;;16.97;78.34;102616.66;5031392;28;20457;-72
2022/08/09 00:18:40;;;;;;;8.52;5.90;;;;;;;16.84;78.79;102594.97;5032686;28;20033;-72
2022/08/09 00:21:07;;;;;;;8.95;6.28;;;;;;;16.92;78.85;102620.28;5030382;28;20021;-72
2022/08/09 00:23:33;;;;;;;6.93;5.68;;;;;;;16.84;78.86;102610.78;5032205;28;20029;-72
2022/08/09 00:25:58;;;;;;;8.80;6.20;;;;;;;16.80;79.23;102618.78;5030697;28;20115;-72
2022/08/09 00:28:24;;;;;;;6.47;5.88;;;;;;;16.73;79.55;102615.38;5030330;28;20156;-72
2022/08/09 00:30:50;;;;;;;11.57;5.70;;;;;;;16.67;79.24;102612.84;5032064;28;20026;-72
2022/08/09 00:33:16;;;;;;;8.18;6.03;;;;;;;16.70;79.65;102619.84;5031998;28;20128;-72
2022/08/09 00:35:41;;;;;;;8.27;5.90;;;;;;;16.67;79.53;102614.63;5029783;28;20482;-72
2022/08/09 00:38:08;;;;;;;7.38;5.90;;;;;;;16.61;79.86;102610.34;5032762;28;20052;-72
2022/08/09 00:40:34;;;;;;;8.80;5.57;;;;;;;16.63;79.90;102617.31;5031686;28;20025;-72
2022/08/09 00:42:59;;;;;;;6.53;5.60;;;;;;;16.60;80.11;102616.53;5032115;28;20042;-72
2022/08/09 00:45:24;;;;;;;6.72;5.75;;;;;;;16.58;80.10;102610.44;5028906;28;20128;-72
2022/08/09 00:47:50;;;;;;;7.07;5.45;;;;;;;16.51;79.99;102619.34;5032274;28;20024;-72
2022/08/09 00:50:15;;;;;;;7.85;6.13;;;;;;;16.43;80.36;102614.22;5034670;28;20060;-72
2022/08/09 00:52:41;;;;;;;6.55;5.53;;;;;;;16.39;80.52;102620.47;5031022;28;20030;-72
2022/08/09 00:55:07;;;;;;;8.73;5.88;;;;;;;16.39;80.75;102621.31;5031055;28;20025;-72
2022/08/09 00:57:32;;;;;;;8.82;5.45;;;;;;;16.39;80.69;102617.84;5028910;28;20037;-71
2022/08/09 00:59:58;;;;;;;7.13;5.78;;;;;;;16.39;80.48;102618.69;5031910;28;20029;-71
2022/08/09 01:02:28;;;;;;;7.72;5.82;;;;;;;16.37;80.43;102619.63;5029656;28;20496;-72
2022/08/09 01:05:11;;;;;;;8.65;5.70;;;;;;;16.30;80.29;102623.25;5031696;28;20029;-72
2022/08/09 01:07:51;;;;;;;7.03;5.70;;;;;;;16.28;80.74;102625.06;5030030;28;20041;-72
2022/08/09 01:10:42;;;;;;;6.97;5.35;;;;;;;16.24;80.27;102620.75;5029640;28;20025;-72
2022/08/09 01:13:26;;;;;;;12.18;6.05;;;;;;;16.26;80.11;102626.88;5030040;28;20033;-72
2022/08/09 01:15:55;;;;;;;7.03;6.00;;;;;;;16.22;81.26;102623.44;5030773;28;20072;-72
2022/08/09 01:18:26;;;;;;;10.90;5.28;;;;;;;16.20;81.41;102622.56;5031888;28;20029;-72
2022/08/09 01:21:21;;;;;;;9.52;5.90;;;;;;;16.15;80.62;102621.78;5029209;28;20041;-71
2022/08/09 01:24:01;;;;;;;7.57;5.72;;;;;;;16.18;80.72;102628.75;5018260;28;20511;-72
2022/08/09 01:26:53;;;;;;;6.38;5.45;;;;;;;16.17;80.25;102629.66;5026129;28;20608;-72
2022/08/09 01:29:26;;;;;;;8.57;5.68;;;;;;;16.13;81.37;102629.72;5022322;28;20390;-72
2022/08/09 01:31:57;;;;;;;8.57;5.40;;;;;;;16.14;81.28;102628.81;5030696;28;20021;-72
2022/08/09 01:34:24;;;;;;;9.68;5.35;;;;;;;16.09;81.66;102622.78;5031763;28;20040;-72
2022/08/09 01:36:51;;;;;;;6.63;5.55;;;;;;;16.04;81.68;102621.13;5029002;28;20417;-72
2022/08/09 01:39:19;;;;;;;6.50;5.18;;;;;;;16.00;81.50;102622.94;5046459;28;20118;-72
2022/08/09 01:41:45;;;;;;;8.88;5.53;;;;;;;15.97;81.82;102617.72;5038231;28;20024;-72
2022/08/09 01:44:12;;;;;;;8.35;5.95;;;;;;;15.86;82.07;102609.19;5044063;28;20041;-72
2022/08/09 01:46:42;;;;;;;6.00;5.40;;;;;;;15.94;82.09;102611.66;5033816;28;20032;-72
2022/08/09 01:49:14;;;;;;;6.18;5.57;;;;;;;15.85;82.24;102612.69;5035559;28;20070;-72
2022/08/09 01:51:44;;;;;;;7.00;5.80;;;;;;;15.81;82.84;102613.63;5035767;28;20079;-72
2022/08/09 01:54:12;;;;;;;7.40;5.93;;;;;;;15.78;82.75;102608.41;5041911;28;20032;-72
2022/08/09 01:56:40;;;;;;;11.52;6.20;;;;;;;15.80;82.84;102617.16;5036690;28;20033;-71
2022/08/09 01:59:09;;;;;;;6.80;5.50;;;;;;;15.72;82.97;102619.91;5043942;28;20045;-72
2022/08/09 02:01:36;;;;;;;8.82;5.65;;;;;;;15.73;83.19;102620.75;5038874;28;20589;-72
2022/08/09 02:04:02;;;;;;;7.90;5.90;;;;;;;15.64;83.31;102619.16;5051752;28;20036;-72
2022/08/09 02:09:15;;;;;;;7.18;5.65;;;;;;;15.65;83.03;102632.25;5033969;28;20043;-72
2022/08/09 02:11:40;;;;;;;7.72;5.47;;;;;;;15.66;83.44;102635.75;5040819;28;20051;-72
2022/08/09 02:14:08;;;;;;;6.90;5.75;;;;;;;15.55;83.76;102638.56;5055270;28;20484;-71
2022/08/09 02:16:37;;;;;;;8.80;6.07;;;;;;;15.57;83.80;102641.19;5040214;28;20368;-72
2022/08/09 02:19:03;;;;;;;9.73;6.32;;;;;;;15.56;83.83;102635.03;5044304;28;20083;-72
2022/08/09 02:21:35;;;;;;;10.65;6.20;;;;;;;15.54;84.06;102639.44;5045701;28;20029;-71
2022/08/09 02:24:04;;;;;;;11.13;6.60;;;;;;;15.48;84.38;102623.78;5035399;28;20048;-72
2022/08/09 02:26:34;;;;;;;7.97;6.53;;;;;;;15.48;84.33;102623.78;5039786;28;20021;-72
2022/08/09 02:29:21;;;;;;;7.57;6.03;;;;;;;15.44;84.07;102632.59;5044205;28;20061;-71
2022/08/09 02:31:48;;;;;;;9.23;6.03;;;;;;;15.41;84.03;102630.88;5041527;28;20041;-72
2022/08/09 02:34:17;;;;;;;9.80;5.90;;;;;;;15.40;84.29;102625.63;5037287;28;20033;-71
2022/08/09 02:36:47;;;;;;;9.02;6.00;;;;;;;15.42;84.50;102629.13;5037999;28;20495;-72
2022/08/09 02:39:20;;;;;;;7.38;6.63;;;;;;;15.41;84.21;102630.03;5052397;28;20060;-71
2022/08/09 02:41:55;;;;;;;9.27;6.00;;;;;;;15.37;84.40;102621.31;5039972;28;20536;-72
2022/08/09 02:44:24;;;;;;;8.88;5.82;;;;;;;15.36;84.92;102623.94;5054869;28;20037;-72
2022/08/09 02:46:52;;;;;;;7.38;5.63;;;;;;;15.38;84.71;102624.81;5033821;28;20112;-72
2022/08/09 02:49:18;;;;;;;7.72;6.20;;;;;;;15.37;84.73;102621.31;5042945;28;20033;-72
2022/08/09 02:51:48;;;;;;;11.20;7.00;;;;;;;15.33;84.73;102627.50;5045444;28;20086;-71
2022/08/09 02:54:15;;;;;;;9.63;6.28;;;;;;;15.27;84.98;102622.34;5047698;28;20030;-72
2022/08/09 02:56:47;;;;;;;8.23;6.20;;;;;;;15.29;85.01;102620.56;5035173;28;20025;-71
2022/08/09 02:59:15;;;;;;;9.10;6.10;;;;;;;15.29;84.73;102617.06;5048158;28;20038;-71
2022/08/09 03:01:42;;;;;;;9.55;6.50;;;;;;;15.21;85.39;102622.44;5033725;28;20195;-71
2022/08/09 03:04:10;;;;;;;8.13;6.22;;;;;;;15.20;84.82;102618.94;5051497;28;20029;-72
2022/08/09 03:06:36;;;;;;;7.53;6.40;;;;;;;15.17;85.42;102613.75;5039104;28;20391;-72
2022/08/09 03:09:03;;;;;;;10.35;6.28;;;;;;;15.17;85.77;102619.00;5047128;28;20029;-71
2022/08/09 03:11:30;;;;;;;8.90;6.55;;;;;;;15.11;85.62;102618.22;5043562;28;20025;-72
2022/08/09 03:13:56;;;;;;;10.43;6.32;;;;;;;15.05;85.92;102618.28;5048447;28;20032;-72
2022/08/09 03:16:23;;;;;;;9.60;6.97;;;;;;;15.02;86.38;102621.81;5043095;28;20459;-72
2022/08/09 03:18:49;;;;;;;7.93;6.35;;;;;;;14.95;86.48;102622.81;5054627;28;20464;-71
2022/08/09 03:21:17;;;;;;;7.85;6.32;;;;;;;14.97;86.79;102615.75;5043745;28;20052;-72
2022/08/09 03:23:45;;;;;;;9.82;6.82;;;;;;;14.90;86.82;102614.09;5043847;28;20170;-71
2022/08/09 03:26:13;;;;;;;7.40;6.63;;;;;;;14.87;86.86;102620.25;5040522;28;20571;-71
2022/08/09 03:28:40;;;;;;;9.82;6.72;;;;;;;14.88;87.23;102623.78;5038014;28;20469;-71
2022/08/09 03:31:07;;;;;;;7.72;6.55;;;;;;;14.85;87.31;102621.19;5046865;28;20028;-71
2022/08/09 03:33:34;;;;;;;10.80;7.15;;;;;;;14.80;87.51;102615.13;5045086;28;20476;-72
2022/08/09 03:36:01;;;;;;;8.82;7.00;;;;;;;14.77;87.89;102625.66;5040127;28;20034;-71
2022/08/09 03:38:26;;;;;;;10.52;7.30;;;;;;;14.70;87.96;102625.72;5047986;28;20465;-71
2022/08/09 03:40:52;;;;;;;9.43;7.05;;;;;;;14.72;88.54;102628.34;5040555;28;20087;-71
2022/08/09 03:43:17;;;;;;;10.30;7.13;;;;;;;14.71;88.21;102623.97;5040302;28;20481;-72
2022/08/09 03:45:42;;;;;;;9.43;6.75;;;;;;;14.75;87.87;102625.69;5042728;28;20026;-71
2022/08/09 03:48:07;;;;;;;8.02;6.90;;;;;;;14.72;88.36;102626.59;5045789;28;20033;-71
2022/08/09 03:50:35;;;;;;;9.43;6.97;;;;;;;14.69;88.38;102631.88;5046831;28;20495;-71
2022/08/09 03:53:02;;;;;;;7.95;6.88;;;;;;;14.65;88.42;102635.44;5038354;28;20504;-71
2022/08/09 03:55:27;;;;;;;9.23;7.38;;;;;;;14.61;88.46;102617.97;5033205;28;20118;-71
2022/08/09 03:57:55;;;;;;;12.10;7.43;;;;;;;14.59;88.47;102622.38;5033702;28;20025;-71
2022/08/09 04:00:20;;;;;;;11.80;6.93;;;;;;;14.60;88.50;102631.97;5035945;28;20444;-71
2022/08/09 04:02:46;;;;;;;8.05;7.18;;;;;;;14.60;88.68;102631.13;5039071;28;20025;-71
2022/08/09 04:05:12;;;;;;;9.57;7.10;;;;;;;14.55;88.97;102628.56;5037378;28;20025;-71
2022/08/09 04:07:38;;;;;;;8.95;6.55;;;;;;;14.56;88.90;102621.53;5033949;28;20034;-71
2022/08/09 04:10:03;;;;;;;8.32;6.90;;;;;;;14.55;89.11;102625.94;5036824;28;20029;-71
2022/08/09 04:12:47;;;;;;;8.63;6.80;;;;;;;14.55;88.42;102623.31;5049292;28;20464;-72
2022/08/09 04:15:13;;;;;;;;;;;;;;;14.54;86.03;102625.94;5041626;28;20073;-71
2022/08/09 04:17:40;;;;;;;9.85;6.50;;;;;;;14.52;88.95;102621.59;5036006;28;19917;-71
2022/08/09 04:20:07;;;;;;;8.35;6.97;;;;;;;14.49;89.16;102620.72;5044911;28;20034;-71
2022/08/09 04:22:33;;;;;;;9.70;6.82;;;;;;;14.45;89.71;102626.84;5039772;28;20080;-71
2022/08/09 04:24:59;;;;;;;9.98;7.38;;;;;;;14.47;89.72;102625.09;5053659;28;20499;-71
2022/08/09 04:27:25;;;;;;;10.77;7.47;;;;;;;14.38;89.68;102622.56;5049448;28;20052;-71
2022/08/09 04:29:50;;;;;;;8.07;6.82;;;;;;;14.39;90.12;102637.44;5039910;28;20036;-71
2022/08/09 04:32:16;;;;;;;10.98;7.13;;;;;;;14.31;90.50;102636.66;5036178;28;20389;-72
2022/08/09 04:34:42;;;;;;;8.88;7.00;;;;;;;14.32;90.30;102641.00;5044701;28;20038;-71
2022/08/09 04:37:07;;;;;;;10.75;7.47;;;;;;;14.37;90.43;102652.34;5034554;28;20033;-71
2022/08/09 04:39:33;;;;;;;8.77;6.95;;;;;;;14.36;90.64;102647.97;5033531;28;20087;-71
2022/08/09 04:41:58;;;;;;;8.70;7.35;;;;;;;14.40;90.70;102644.44;5038876;28;20428;-72
2022/08/09 04:44:24;;;;;;;10.57;7.28;;;;;;;14.37;91.09;102657.56;5051419;28;20043;-71
2022/08/09 04:46:49;;;;;;;9.48;7.70;;;;;;;14.36;90.91;102646.22;5038317;28;20026;-71
2022/08/09 04:49:14;;;;;;;11.88;7.60;;;;;;;14.39;90.90;102640.06;5043120;28;20080;-72
2022/08/09 04:51:40;;;;;;;12.25;7.68;;;;;;;14.48;90.82;102640.81;5033390;28;20362;-71
2022/08/09 04:54:05;;;;;;;9.02;7.63;;;;;;;14.55;90.69;102646.94;5036049;28;20484;-72
2022/08/09 04:56:30;;;;;;;11.82;7.88;;;;;;;14.58;90.73;102652.13;5032578;28;20548;-71
2022/08/09 04:58:56;;;;;;;12.77;8.30;;;;;;;14.53;90.66;102638.19;5050299;28;20027;-71
2022/08/09 05:01:21;;;;;;;10.18;7.88;;;;;;;14.62;90.69;102658.22;5037536;28;20028;-71
2022/08/09 05:03:47;;;;;;;9.38;7.30;;;;;;;14.70;90.42;102653.75;5050655;28;20031;-71
2022/08/09 05:06:13;;;;;;;10.18;8.30;;;;;;;14.73;90.54;102659.81;5033534;28;20025;-71
2022/08/09 05:08:39;;;;;;;10.02;7.90;;;;;;;14.77;90.07;102665.03;5033285;28;20032;-71
2022/08/09 05:11:05;;;;;;;10.43;7.90;;;;;;;14.81;90.22;102670.22;5042908;28;20029;-71
2022/08/09 05:13:30;;;;;;;12.95;8.25;;;;;;;14.83;89.94;102663.19;5049992;28;20144;-71
2022/08/09 05:15:55;;;;;;;11.07;7.90;;;;;;;14.86;89.73;102659.69;5043867;28;20087;-71
2022/08/09 05:18:20;;;;;;;10.02;7.47;;;;;;;14.94;89.58;102669.22;5050021;28;20103;-72
2022/08/09 05:20:46;;;;;;;14.55;8.68;;;;;;;14.99;89.36;102666.50;5039994;28;20083;-72
2022/08/09 05:23:12;;;;;;;11.52;8.68;;;;;;;14.99;89.42;102671.75;5042248;28;20076;-71
2022/08/09 05:25:37;;;;;;;13.27;8.80;;;;;;;15.01;89.64;102674.34;5044597;28;20104;-72
2022/08/09 05:28:03;;;;;;;12.73;8.80;;;;;;;15.05;89.39;102674.31;5034013;28;20057;-71
2022/08/09 05:30:28;;;;;;;10.82;8.55;;;;;;;15.09;89.40;102667.25;5031519;28;20035;-71
2022/08/09 05:32:54;;;;;;;13.15;8.93;;;;;;;15.06;89.62;102665.53;5049164;28;20551;-71
2022/08/09 05:35:20;;;;;;;11.82;9.00;;;;;;;15.07;89.57;102664.63;5041059;28;20029;-71
2022/08/09 05:37:45;;;;;;;10.55;8.68;;;;;;;15.10;89.48;102664.59;5038803;28;20033;-71
2022/08/09 05:40:11;;;;;;;11.68;8.27;;;;;;;15.19;89.14;102668.88;5040080;28;20025;-71
2022/08/09 05:42:36;;;;;;;14.65;9.27;;;;;;;15.19;88.91;102667.09;5044286;28;20084;-71
2022/08/09 05:45:03;;;;;;;11.65;8.95;;;;;;;15.23;88.92;102662.69;5045548;28;20083;-71
2022/08/09 05:47:29;;;;;;;15.45;9.10;;;;;;;15.28;89.17;102674.00;5049623;28;20040;-71
2022/08/09 05:49:55;;;;;;;14.05;9.13;;;;;;;15.36;89.12;102677.38;5035867;28;20025;-71
2022/08/09 05:52:22;;;;;;;12.10;9.07;;;;;;;15.37;89.08;102662.50;5049420;28;20104;-71
2022/08/09 05:54:47;;;;;;;13.18;8.55;;;;;;;15.54;88.71;102678.88;5042814;28;20090;-72
2022/08/09 05:57:12;;;;;;;11.52;8.48;;;;;;;15.56;88.18;102671.81;5042256;28;20427;-71
2022/08/09 05:59:38;;;;;;;13.65;9.02;;;;;;;15.61;88.03;102677.03;5031518;28;20052;-72
2022/08/09 06:02:03;;;;;;;13.65;9.18;;;;;;;15.67;88.19;102677.84;5023662;28;20038;-71
2022/08/09 06:04:29;;;;;;;11.48;8.52;;;;;;;15.74;87.72;102672.47;5048671;28;20021;-71
2022/08/09 06:06:54;;;;;;;14.23;9.27;;;;;;;15.81;87.45;102685.50;5045332;28;20056;-71
2022/08/09 06:09:20;;;;;;;13.32;8.40;;;;;;;15.85;87.54;102681.06;5037375;28;20032;-72
2022/08/09 06:11:45;;;;;;;11.05;8.95;;;;;;;15.91;87.43;102686.22;5039758;28;20385;-71
2022/08/09 06:14:11;;;;;;;13.68;9.15;;;;;;;15.93;87.29;102691.47;5049423;28;20060;-71
2022/08/09 06:16:36;;;;;;;12.38;8.77;;;;;;;16.00;87.92;102690.47;5034711;28;20022;-72
2022/08/09 06:19:02;;;;;;;15.10;9.00;;;;;;;16.05;86.65;102689.47;5038665;28;20108;-71
2022/08/09 06:21:27;;;;;;;11.63;8.73;;;;;;;16.11;86.92;102686.75;5040220;28;20591;-71
2022/08/09 06:23:54;;;;;;;10.98;8.60;;;;;;;16.17;86.57;102695.44;5037471;28;20026;-71
2022/08/09 06:26:21;;;;;;;10.23;8.23;;;;;;;16.19;86.61;102685.75;5038736;28;20025;-72
2022/08/09 06:28:47;;;;;;;13.45;9.23;;;;;;;16.28;86.90;102696.97;5032766;28;20222;-72
2022/08/09 06:31:12;;;;;;;12.10;8.82;;;;;;;16.32;86.32;102703.94;5043678;28;20021;-72
2022/08/09 06:33:37;;;;;;;17.15;9.38;;;;;;;16.37;85.90;102691.53;5048969;28;20036;-72
2022/08/09 06:36:03;;;;;;;13.43;8.32;;;;;;;16.44;84.75;102700.19;5037323;28;20058;-71
2022/08/09 06:38:28;;;;;;;12.93;8.90;;;;;;;16.51;85.72;102701.84;5037310;28;20479;-72
2022/08/09 06:40:54;;;;;;;14.45;8.80;;;;;;;16.53;85.63;102697.41;5035324;28;20390;-72
2022/08/09 06:43:19;;;;;;;14.13;9.50;;;;;;;16.63;85.25;102704.22;5043577;28;20037;-72
2022/08/09 06:45:45;;;;;;;14.00;9.65;;;;;;;16.71;85.08;102700.56;5040949;28;20504;-71
2022/08/09 06:48:11;;;;;;;10.82;9.27;;;;;;;16.79;84.85;102698.69;5043391;28;20499;-71
2022/08/09 06:50:36;;;;;;;11.02;8.60;;;;;;;16.84;85.05;102691.59;5037971;28;20021;-72
2022/08/09 06:53:03;;;;;;;13.77;9.27;;;;;;;16.89;84.61;102697.59;5036259;28;20393;-72
2022/08/09 06:55:31;;;;;;;12.23;9.13;;;;;;;16.95;84.57;102699.25;5029306;28;20028;-72
2022/08/09 06:57:57;;;;;;;13.15;9.10;;;;;;;17.05;84.18;102698.16;5033465;28;20080;-72
2022/08/09 07:00:23;;;;;;;14.38;8.82;;;;;;;17.17;84.01;102710.22;5040744;28;20033;-72
2022/08/09 07:02:49;;;;;;;12.88;9.43;;;;;;;17.22;83.13;102706.56;5046411;28;20115;-71
2022/08/09 07:05:14;;;;;;;13.55;9.27;;;;;;;17.26;82.87;102704.72;5050404;28;20468;-72
2022/08/09 07:07:40;;;;;;;11.23;9.40;;;;;;;17.28;82.74;102710.84;5048504;28;20030;-71
2022/08/09 07:10:05;;;;;;;13.82;9.05;;;;;;;17.36;82.68;102708.03;5041002;28;20026;-72
2022/08/09 07:12:31;;;;;;;13.27;9.05;;;;;;;17.43;82.53;102705.25;5025376;28;20368;-72
2022/08/09 07:14:56;;;;;;;12.75;9.80;;;;;;;17.50;81.95;102703.34;5044199;28;20049;-71
2022/08/09 07:17:21;;;;;;;14.65;9.27;;;;;;;17.59;82.08;102708.38;5048662;28;20141;-72
2022/08/09 07:19:46;;;;;;;10.65;8.63;;;;;;;17.62;80.99;102703.03;5054614;28;20025;-72
2022/08/09 07:22:12;;;;;;;11.57;8.75;;;;;;;17.76;81.08;102715.91;5054142;28;20488;-72
2022/08/09 07:24:37;;;;;;;10.60;9.18;;;;;;;17.85;81.61;102710.41;5041052;28;20033;-72
2022/08/09 07:27:03;;;;;;;12.00;8.65;;;;;;;17.95;81.09;102711.06;5049654;28;20017;-72
2022/08/09 07:29:28;;;;;;;13.43;9.40;;;;;;;17.98;79.81;102713.63;5029269;28;20037;-71
2022/08/09 07:31:54;;;;;;;17.15;8.98;;;;;;;18.04;79.69;102709.97;5040778;28;20048;-74
2022/08/09 07:34:19;;;;;;;15.35;8.68;;;;;;;18.16;79.37;102713.19;5033389;28;20033;-75
2022/08/09 07:36:45;;;;;;;14.00;8.77;;;;;;;18.21;78.71;102713.03;5041800;28;20028;-75
2022/08/09 07:39:10;;;;;;;11.30;8.60;;;;;;;18.32;79.20;102710.16;5051419;28;20024;-75
2022/08/09 07:41:35;;;;;;;13.18;8.10;;;;;;;18.40;78.22;102719.56;5041349;28;20067;-74
2022/08/09 07:44:02;;;;;;;13.38;8.25;;;;;;;18.47;78.04;102715.00;5034495;28;20501;-74
2022/08/09 07:46:28;;;;;;;13.13;8.75;;;;;;;18.55;77.37;102712.16;5033276;28;20037;-74
2022/08/09 07:48:53;;;;;;;12.85;7.68;;;;;;;18.61;77.26;102704.94;5039586;28;20549;-75
2022/08/09 07:51:19;;;;;;;10.35;7.72;;;;;;;18.72;76.98;102712.59;5052975;28;20021;-74
2022/08/09 07:53:45;;;;;;;13.52;9.07;;;;;;;18.84;76.95;102706.13;5048139;28;20032;-74
2022/08/09 07:56:10;;;;;;;10.48;8.00;;;;;;;18.91;76.59;102711.16;5043047;28;20052;-75
2022/08/09 07:58:35;;;;;;;13.48;7.82;;;;;;;19.02;75.25;102715.28;5043796;28;20482;-74
2022/08/09 08:01:01;;;;;;;12.95;7.95;;;;;;;19.08;74.71;102712.47;5042080;28;20032;-75
2022/08/09 08:03:26;;;;;;;11.07;7.90;;;;;;;19.09;74.62;102711.53;5046076;28;20044;-75
2022/08/09 08:05:52;;;;;;;12.05;7.60;;;;;;;19.20;74.78;102705.94;5042451;28;20474;-75
2022/08/09 08:08:17;;;;;;;10.73;7.78;;;;;;;19.32;73.98;102722.28;5040467;28;20462;-75
2022/08/09 08:10:43;;;;;;;18.35;7.95;;;;;;;19.31;73.85;102717.06;5040922;28;20043;-74
2022/08/09 08:13:08;;;;;;;12.10;8.52;;;;;;;19.40;73.12;102725.56;5052886;28;20029;-74
2022/08/09 08:15:34;;;;;;;13.48;8.15;;;;;;;19.46;72.34;102716.59;5052990;28;20841;-75
2022/08/09 08:17:59;;;;;;;10.88;8.40;;;;;;;19.55;72.82;102726.84;5043492;28;20423;-73
2022/08/09 08:20:27;;;;;;;11.57;7.22;;;;;;;19.63;72.50;102726.63;5047685;28;20021;-74
2022/08/09 08:22:52;;;;;;;11.73;7.60;;;;;;;19.66;71.96;102720.44;5053446;28;20025;-75
2022/08/09 08:25:17;;;;;;;9.35;6.85;;;;;;;19.78;71.54;102720.91;5052205;28;20017;-74
2022/08/09 08:27:43;;;;;;;10.20;6.72;;;;;;;19.95;72.08;102722.13;5036650;28;20444;-73
2022/08/09 08:30:09;;;;;;;12.32;6.40;;;;;;;20.10;72.09;102718.94;5035060;28;20030;-74
2022/08/09 08:32:35;;;;;;;10.45;7.43;;;;;;;20.22;70.14;102712.38;5046180;28;20563;-74
2022/08/09 08:35:01;;;;;;;9.13;7.00;;;;;;;20.24;68.30;102707.88;5053478;28;20053;-74
2022/08/09 08:37:26;;;;;;;8.55;5.72;;;;;;;20.38;69.38;102716.22;5038181;28;20030;-74
2022/08/09 08:39:53;;;;;;;11.73;6.47;;;;;;;20.44;67.09;102718.66;5036423;28;20016;-74
2022/08/09 08:42:20;;;;;;;8.48;5.60;;;;;;;20.55;67.78;102718.31;5052364;28;20120;-74
2022/08/09 08:44:47;;;;;;;9.35;6.13;;;;;;;20.63;65.97;102716.22;5039894;28;20092;-74
2022/08/09 08:47:14;;;;;;;7.82;5.22;;;;;;;20.71;65.54;102711.53;5045254;28;20040;-76
2022/08/09 08:49:40;;;;;;;10.40;5.88;;;;;;;20.77;65.77;102715.75;5044658;28;20053;-76
2022/08/09 08:52:07;;;;;;;11.02;6.72;;;;;;;20.80;65.56;102711.22;5052857;28;20045;-76
2022/08/09 08:54:33;;;;;;;8.48;5.80;;;;;;;20.88;65.08;102704.75;5049169;28;20041;-75
2022/08/09 08:56:58;;;;;;;9.65;5.68;;;;;;;21.03;65.37;102710.34;5041467;28;20036;-75
2022/08/09 08:59:24;;;;;;;7.00;5.72;;;;;;;21.19;65.58;102718.59;5052255;28;20032;-75
2022/08/09 09:01:50;;;;;;;8.10;4.72;;;;;;;21.26;63.22;102705.94;5051893;28;20477;-76
2022/08/09 09:04:18;;;;;;;10.20;4.53;;;;;;;21.41;61.79;102721.28;5039976;28;20475;-76
2022/08/09 09:06:47;;;;;;;5.45;3.90;;;;;;;21.50;60.97;102720.91;5044301;28;20030;-76
2022/08/09 09:09:13;;;;;;;5.63;2.80;;;;;;;21.56;58.65;102726.91;5036575;28;20435;-76
2022/08/09 09:11:40;;;;;;;6.75;2.90;;;;;;;21.59;58.70;102726.81;5045342;28;20021;-76
2022/08/09 09:14:12;;;;;;;6.72;2.85;;;;;;;21.61;59.13;102728.44;5041479;28;20038;-76
2022/08/09 09:16:38;;;;;;;6.15;3.28;;;;;;;21.77;59.19;102738.44;5036330;28;20018;-75
2022/08/09 09:19:06;;;;;;;7.70;3.60;;;;;;;21.90;59.72;102732.56;5035499;28;20499;-76
2022/08/09 09:21:31;;;;;;;6.90;3.47;;;;;;;22.09;60.89;102727.34;5049030;28;20028;-75
2022/08/09 09:24:03;;;;;;;6.47;3.20;;;;;;;22.23;59.06;102731.25;5045775;28;20021;-76
2022/08/09 09:26:28;;;;;;;7.85;3.80;;;;;;;22.21;57.78;102731.34;5045067;28;20388;-76
2022/08/09 09:28:54;;;;;;;5.95;3.40;;;;;;;22.30;58.29;102736.25;5047783;28;20024;-76
2022/08/09 09:31:21;;;;;;;4.78;3.25;;;;;;;22.38;56.93;102741.22;5043087;28;20032;-76
2022/08/09 09:33:47;;;;;;;4.97;2.78;;;;;;;22.40;57.26;102734.94;5036506;28;20080;-72
2022/08/09 09:36:12;;;;;;;4.53;2.88;;;;;;;22.48;56.11;102725.75;5045762;28;20033;-71
2022/08/09 09:38:44;;;;;;;3.92;2.50;;;;;;;22.55;56.40;102737.84;5040783;28;20029;-71
2022/08/09 09:41:32;;;;;;;5.82;2.20;;;;;;;22.63;53.93;102733.91;5051942;28;20052;-72
2022/08/09 09:44:00;;;;;;;4.32;1.98;;;;;;;22.77;53.38;102730.63;5051111;28;20523;-72
2022/08/09 09:46:28;;;;;;;5.03;1.92;;;;;;;22.87;52.60;102723.09;5051437;28;20103;-72
2022/08/09 09:49:01;;;;;;;3.50;2.47;;;;;;;22.91;53.54;102714.91;5051895;28;20064;-72
2022/08/09 09:51:30;;;;;;;;;;;;;;;23.06;54.40;102718.69;5051073;28;20025;-72
2022/08/09 09:54:09;;;;;;;2.55;1.75;;;;;;;23.21;52.13;102724.22;5051544;28;19917;-72
2022/08/09 09:56:44;;;;;;;3.80;1.60;;;;;;;23.30;51.22;102729.13;5050612;28;20027;-72
2022/08/09 09:59:12;;;;;;;5.05;1.75;;;;;;;23.41;50.46;102726.78;5047147;28;20388;-72
2022/08/09 10:01:38;;;;;;;2.13;1.70;;;;;;;23.59;50.72;102723.25;5040168;28;20044;-71
2022/08/09 10:04:15;;;;;;;5.68;2.15;;;;;;;23.59;49.33;102717.94;5027395;28;20038;-72
2022/08/09 10:06:43;;;;;;;3.03;1.95;;;;;;;23.63;48.82;102729.28;5034154;28;20447;-72
2022/08/09 10:09:11;;;;;;;3.70;2.15;;;;;;;23.68;47.71;102726.44;5045747;28;20389;-71
2022/08/09 10:11:38;;;;;;;6.55;1.85;;;;;;;23.64;48.66;102719.50;5037245;28;20026;-72
2022/08/09 10:14:04;;;;;;;3.60;2.00;;;;;;;23.80;48.74;102734.69;5030614;28;20034;-72
2022/08/09 10:16:34;;;;;;;5.38;1.75;;;;;;;23.88;48.52;102730.78;5037530;28;20024;-72
2022/08/09 10:19:03;;;;;;;5.47;1.80;;;;;;;23.88;48.40;102734.31;5022236;28;20030;-71
2022/08/09 10:21:29;;;;;;;7.82;2.40;;;;;;;23.96;49.22;102724.13;5033935;28;20033;-78
2022/08/09 10:23:56;;;;;;;2.33;1.55;;;;;;;24.12;48.43;102721.56;5043907;28;20029;-72
2022/08/09 10:26:23;;;;;;;3.28;1.88;;;;;;;24.16;49.40;102707.13;5037272;28;20009;-73
2022/08/09 10:28:48;;;;;;;4.50;1.73;;;;;;;24.25;45.77;102713.78;5031382;28;20036;-73
2022/08/09 10:31:15;;;;;;;3.08;1.63;;;;;;;24.22;46.87;102722.81;5036532;28;20029;-72
2022/08/09 10:33:41;;;;;;;4.50;1.65;;;;;;;24.16;45.98;102714.25;5040312;28;20029;-73
2022/08/09 10:36:09;;;;;;;1.77;1.40;;;;;;;24.25;46.75;102721.78;5035072;28;20040;-72
2022/08/09 10:38:38;;;;;;;1.88;1.42;;;;;;;24.41;46.18;102706.75;5047683;28;20025;-72
2022/08/09 10:41:04;;;;;;;5.18;2.05;;;;;;;24.64;46.41;102696.69;5049938;28;20109;-72
2022/08/09 10:43:30;;;;;;;2.83;1.40;;;;;;;24.73;45.62;102705.03;5050449;28;20052;-72
2022/08/09 10:46:12;;;;;;;3.53;1.63;;;;;;;24.80;46.40;102708.25;5035751;28;20037;-72
2022/08/09 10:48:46;;;;;;;3.08;1.50;;;;;;;24.81;45.83;102704.63;5037208;28;20030;-80
2022/08/09 10:51:43;;;;;;;3.03;2.00;;;;;;;24.95;44.98;102702.06;5031301;28;20026;-76
2022/08/09 10:54:11;;;;;;;4.90;1.80;;;;;;;24.96;43.64;102695.78;5026269;28;20033;-76
2022/08/09 10:56:38;;;;;;;1.88;1.50;;;;;;;24.93;44.02;102690.63;5043158;28;20021;-76
2022/08/09 10:59:22;;;;;;;3.15;1.40;;;;;;;25.00;44.94;102700.00;5046487;28;20027;-76
2022/08/09 11:01:51;;;;;;;3.80;1.40;;;;;;;25.18;43.58;102694.63;5041124;28;20033;-76
2022/08/09 11:04:25;;;;;;;4.63;1.45;;;;;;;25.35;43.44;102686.53;5045150;28;20098;-76
2022/08/09 11:06:56;;;;;;;2.47;1.42;;;;;;;25.40;42.75;102689.78;5054096;28;20025;-76
2022/08/09 11:09:41;;;;;;;3.67;1.40;;;;;;;25.37;42.27;102691.75;5051921;28;20544;-76
2022/08/09 11:12:22;;;;;;;4.45;1.50;;;;;;;25.46;42.11;102685.91;5035295;28;20034;-76
2022/08/09 11:14:53;;;;;;;2.40;1.30;;;;;;;25.51;40.62;102683.00;5041475;28;20052;-76
2022/08/09 11:17:19;;;;;;;3.63;1.30;;;;;;;25.74;41.65;102689.66;5044617;28;20033;-76
2022/08/09 11:20:10;;;;;;;2.20;1.50;;;;;;;25.99;42.11;102689.94;5051201;28;20036;-76
2022/08/09 11:22:38;;;;;;;2.60;1.40;;;;;;;26.11;42.36;102693.72;5035990;28;20543;-76
2022/08/09 11:25:06;;;;;;;2.47;1.35;;;;;;;26.30;41.13;102688.97;5044678;28;20403;-72
2022/08/09 11:27:35;;;;;;;3.90;1.45;;;;;;;26.45;39.04;102691.63;5052752;28;20150;-72